Time;durP1;ratioP1;P1;durP2;ratioP2;P2;SDS_P1;SDS_P2;PMS_P1;PMS_P2;Temp;Humidity;BMP_temperature;BMP_pressure;BME280_temperature;BME280_humidity;BME280_pressure;Samples;Min_cycle;Max_cycle;Signal;HPM_P1;HPM_P2
2022/06/20 00:04:40;;;;;;;12.93;4.22;;;;;;;21.72;73.04;99903.82;3723531;78;99264;-80
2022/06/20 00:09:42;;;;;;;13.93;4.55;;;;;;;21.69;73.46;99912.38;3710733;79;98587;-80
2022/06/20 00:14:43;;;;;;;9.88;4.22;;;;;;;21.67;73.52;99946.41;3710528;79;99355;-81
2022/06/20 00:19:44;;;;;;;16.70;5.25;;;;;;;21.57;72.58;99917.46;3713752;79;98967;-81
2022/06/20 00:24:45;;;;;;;17.87;5.72;;;;;;;21.42;73.17;99894.84;3715336;78;32562;-81
2022/06/20 00:29:47;;;;;;;16.25;6.25;;;;;;;21.37;73.49;99917.09;3675104;80;98653;-81
2022/06/20 00:34:48;;;;;;;15.30;6.08;;;;;;;21.31;73.17;99970.73;3675587;80;99100;-81
2022/06/20 00:39:50;;;;;;;15.48;5.97;;;;;;;21.12;73.00;99950.27;3676175;79;99217;-80
2022/06/20 00:44:56;;;;;;;16.52;6.12;;;;;;;21.07;73.17;99971.06;3681907;79;99282;-81
2022/06/20 00:50:20;;;;;;;14.75;6.00;;;;;;;20.99;73.30;99957.96;3670394;80;99278;-81
2022/06/20 00:55:26;;;;;;;15.78;7.53;;;;;;;20.81;72.93;99906.09;3670112;80;32506;-81
2022/06/20 01:00:35;;;;;;;15.28;6.08;;;;;;;20.63;73.50;99915.79;3683202;80;32580;-80
2022/06/20 01:05:45;;;;;;;17.25;5.22;;;;;;;20.59;74.02;99925.55;3617105;81;99043;-81
2022/06/20 01:11:03;;;;;;;18.62;5.85;;;;;;;20.45;73.78;99917.08;3631624;81;99052;-81
2022/06/20 01:16:15;;;;;;;11.08;5.33;;;;;;;20.40;74.17;99920.46;3616567;81;99307;-81
2022/06/20 01:21:21;;;;;;;13.30;4.97;;;;;;;20.42;74.64;99867.66;3670908;79;99246;-81
2022/06/20 01:27:03;;;;;;;13.05;5.90;;;;;;;20.21;74.57;99834.92;3685282;79;98837;-82
2022/06/20 01:32:05;;;;;;;10.90;5.10;;;;;;;20.13;74.88;99962.77;3709215;78;99175;-82
2022/06/20 01:37:29;;;;;;;12.13;4.80;;;;;;;20.21;75.79;100003.98;3704164;79;98927;-82
2022/06/20 01:42:31;;;;;;;16.23;5.75;;;;;;;20.26;75.64;100042.53;3696009;79;32439;-82
2022/06/20 01:47:33;;;;;;;17.02;7.03;;;;;;;20.16;75.21;99995.41;3701605;78;99014;-80
2022/06/20 01:52:38;;;;;;;16.73;6.00;;;;;;;20.07;75.93;100008.67;3702306;79;99266;-78
2022/06/20 01:57:42;;;;;;;18.52;5.97;;;;;;;20.01;76.25;99985.28;3691574;79;99175;-78
2022/06/20 02:02:49;;;;;;;12.37;5.42;;;;;;;20.04;76.77;99987.78;3709553;79;99188;-78
2022/06/20 02:07:50;;;;;;;13.30;4.92;;;;;;;20.02;76.82;99940.77;3715981;78;99276;-78
2022/06/20 02:12:53;;;;;;;14.85;6.65;;;;;;;20.05;77.15;99944.04;3699980;79;33084;-77
2022/06/20 02:17:55;;;;;;;17.23;7.08;;;;;;;19.99;76.69;99909.54;3697657;79;98656;-77
2022/06/20 02:22:58;;;;;;;12.55;6.10;;;;;;;19.96;77.21;100013.02;3717827;79;98593;-79
2022/06/20 02:28:10;;;;;;;12.10;5.90;;;;;;;19.88;76.92;99958.01;3700707;78;99435;-79
2022/06/20 02:33:26;;;;;;;11.85;6.22;;;;;;;19.87;77.56;99957.84;3706388;79;99186;-79
2022/06/20 02:38:28;;;;;;;11.55;7.10;;;;;;;19.79;77.25;99934.17;3653550;78;99294;-79
2022/06/20 02:43:52;;;;;;;10.53;5.30;;;;;;;19.74;77.71;99950.13;3680233;79;99338;-80
2022/06/20 02:48:56;;;;;;;12.55;6.47;;;;;;;19.61;77.44;99899.10;3695864;79;98815;-80
2022/06/20 02:54:01;;;;;;;11.50;5.87;;;;;;;19.21;77.34;99852.03;3709149;79;98578;-81
2022/06/20 02:59:06;;;;;;;13.80;6.00;;;;;;;19.05;78.43;99916.87;3698528;79;98760;-81
2022/06/20 03:04:08;;;;;;;14.87;5.80;;;;;;;19.16;79.07;99928.48;3683483;79;99170;-81
2022/06/20 03:09:13;;;;;;;14.98;5.85;;;;;;;19.25;79.42;99921.66;3708924;79;99206;-81
2022/06/20 03:14:17;;;;;;;13.38;6.03;;;;;;;19.27;79.13;99898.27;3715905;79;99181;-81
2022/06/20 03:19:22;;;;;;;15.28;7.70;;;;;;;19.18;78.66;99868.86;3673935;79;98838;-81
2022/06/20 03:24:24;;;;;;;11.85;5.53;;;;;;;18.99;78.96;99827.42;3711988;79;28660;-81
2022/06/20 03:29:26;;;;;;;14.75;7.15;;;;;;;18.88;79.29;99811.66;3675661;79;98801;-81
2022/06/20 03:34:27;;;;;;;10.68;5.62;;;;;;;18.74;79.40;99786.25;3678586;80;98032;-81
2022/06/20 03:39:29;;;;;;;11.80;5.37;;;;;;;18.63;79.45;99825.59;3676701;80;98766;-81
2022/06/20 03:44:38;;;;;;;11.83;5.72;;;;;;;18.70;80.72;99917.98;3684683;79;98420;-81
2022/06/20 03:49:50;;;;;;;13.70;5.90;;;;;;;18.80;80.82;99955.92;3691197;80;99108;-81
2022/06/20 03:55:11;;;;;;;14.93;6.00;;;;;;;18.87;80.56;99976.02;3696881;80;26853;-79
2022/06/20 04:00:20;;;;;;;16.90;5.83;;;;;;;18.89;80.60;100019.56;3662168;80;99081;-79
2022/06/20 04:05:32;;;;;;;12.65;5.70;;;;;;;18.94;80.55;100085.15;3687269;80;98450;-80
2022/06/20 04:10:58;;;;;;;11.22;6.20;;;;;;;18.88;80.51;100083.53;3676124;80;98999;-80
2022/06/20 04:16:08;;;;;;;10.20;5.08;;;;;;;18.84;80.14;100118.30;3634982;80;98722;-79
2022/06/20 04:21:50;;;;;;;13.50;5.08;;;;;;;18.78;80.16;100060.91;3631830;79;99288;-79
2022/06/20 04:26:57;;;;;;;12.43;5.03;;;;;;;18.65;80.08;99985.42;3556197;80;99392;-80
2022/06/20 04:32:15;;;;;;;13.72;4.90;;;;;;;18.55;80.31;99957.23;3631044;80;98881;-80
2022/06/20 04:37:36;;;;;;;11.78;4.90;;;;;;;18.51;81.02;99996.36;3689708;80;98949;-79
2022/06/20 04:42:48;;;;;;;8.18;4.80;;;;;;;18.59;80.79;99950.95;3674070;80;32516;-79
2022/06/20 04:48:04;;;;;;;12.20;5.15;;;;;;;18.15;80.60;99863.42;3680400;79;98780;-80
2022/06/20 04:53:09;;;;;;;14.10;4.40;;;;;;;17.86;81.26;99906.41;3686714;79;98734;-79
2022/06/20 04:58:15;;;;;;;12.05;4.87;;;;;;;17.86;81.71;99887.72;3685020;79;98773;-80
2022/06/20 05:03:21;;;;;;;9.08;4.75;;;;;;;17.82;81.61;99907.14;3664860;78;98854;-81
2022/06/20 05:08:32;;;;;;;13.90;5.03;;;;;;;17.73;82.57;99913.33;3671138;80;99021;-80
2022/06/20 05:13:51;;;;;;;10.10;5.03;;;;;;;17.72;82.27;99849.75;3674146;80;98469;-82
2022/06/20 05:18:59;;;;;;;11.63;5.45;;;;;;;17.78;83.11;99902.27;3678600;79;98829;-81
2022/06/20 05:24:08;;;;;;;12.80;5.22;;;;;;;17.92;82.49;99889.38;3634726;81;99084;-79
2022/06/20 05:29:23;;;;;;;10.40;5.67;;;;;;;17.78;81.68;99863.30;3641634;78;98693;-79
2022/06/20 05:34:44;;;;;;;8.98;4.80;;;;;;;17.63;82.34;99903.25;3623078;80;99316;-81
2022/06/20 05:39:54;;;;;;;13.00;5.22;;;;;;;17.73;82.64;99896.63;3701048;79;99012;-85
2022/06/20 05:44:55;;;;;;;8.85;5.22;;;;;;;17.73;82.73;99885.50;3720491;78;99189;-84
2022/06/20 05:50:16;;;;;;;9.10;5.42;;;;;;;17.77;82.70;99870.85;3663015;79;99003;-84
2022/06/20 05:55:24;;;;;;;10.78;5.78;;;;;;;17.70;82.92;99905.05;3707302;79;32720;-83
2022/06/20 06:00:30;;;;;;;9.73;6.25;;;;;;;17.62;81.83;99835.50;3709963;79;32437;-84
2022/06/20 06:05:38;;;;;;;10.47;5.43;;;;;;;17.55;82.83;99884.39;3704882;79;98851;-84
2022/06/20 06:10:53;;;;;;;6.78;4.15;;;;;;;17.66;83.24;99886.28;3663612;79;99581;-84
2022/06/20 06:21:27;;;;;;;7.65;3.83;;;;;;;17.69;83.30;99847.23;3710190;79;98946;-83
2022/06/20 06:26:28;;;;;;;7.22;3.72;;;;;;;17.72;82.96;99849.12;3688108;79;98586;-83
2022/06/20 06:31:37;;;;;;;6.75;4.03;;;;;;;17.86;83.14;99861.27;3698289;79;98672;-85
2022/06/20 06:36:51;;;;;;;18.10;5.35;;;;;;;18.01;83.24;99873.59;3692660;79;98344;-85
2022/06/20 06:42:00;;;;;;;11.40;6.17;;;;;;;18.20;83.17;99887.19;3689280;79;98247;-83
2022/06/20 06:47:03;;;;;;;12.10;6.95;;;;;;;18.22;82.68;99871.59;3701822;79;99066;-84
2022/06/20 06:52:22;;;;;;;8.78;5.08;;;;;;;18.22;81.87;99857.67;3705149;79;99288;-84
2022/06/20 06:57:38;;;;;;;9.00;4.80;;;;;;;18.24;81.96;99852.42;3676728;79;98993;-84
2022/06/20 07:02:45;;;;;;;7.35;4.65;;;;;;;18.45;82.06;99839.89;3699894;79;97823;-84
2022/06/20 07:07:53;;;;;;;7.85;4.78;;;;;;;18.49;82.21;99874.02;3703489;79;98698;-83
2022/06/20 07:12:59;;;;;;;9.35;5.12;;;;;;;18.63;81.53;99872.97;3696733;79;27515;-83
2022/06/20 07:18:18;;;;;;;9.85;4.62;;;;;;;18.78;81.41;99895.02;3682672;79;98950;-83
2022/06/20 07:23:19;;;;;;;10.88;5.60;;;;;;;18.90;80.98;99918.55;3696029;79;98469;-83
2022/06/20 07:28:43;;;;;;;7.47;4.35;;;;;;;18.93;80.42;99897.55;3696708;79;99962;-83
2022/06/20 07:34:07;;;;;;;8.23;4.53;;;;;;;18.91;80.18;99872.09;3703601;79;98323;-82
2022/06/20 07:39:22;;;;;;;8.90;4.75;;;;;;;18.93;79.96;99900.33;3702063;79;99083;-82
2022/06/20 07:44:43;;;;;;;8.45;4.60;;;;;;;18.94;79.81;99908.86;3706231;79;98977;-83
2022/06/20 07:49:56;;;;;;;9.90;5.70;;;;;;;18.94;79.55;99903.28;3693049;79;99056;-82
2022/06/20 07:55:02;;;;;;;9.93;5.65;;;;;;;18.92;79.21;99923.08;3710241;79;32470;-82
2022/06/20 08:00:17;;;;;;;9.70;6.03;;;;;;;18.84;79.22;99894.63;3690251;79;98730;-81
2022/06/20 08:05:26;;;;;;;10.03;6.05;;;;;;;18.63;79.31;99970.53;3705185;79;98966;-82
2022/06/20 08:10:38;;;;;;;9.83;5.97;;;;;;;18.54;79.21;100037.90;3709702;79;99441;-82
2022/06/20 08:15:48;;;;;;;9.65;5.83;;;;;;;18.42;79.44;100014.95;3694308;79;99387;-82
2022/06/20 08:21:00;;;;;;;11.70;6.22;;;;;;;18.32;79.37;100089.84;3689542;79;99288;-82
2022/06/20 08:26:14;;;;;;;14.03;7.10;;;;;;;18.12;79.65;100144.82;3691927;78;99984;-81
2022/06/20 08:31:25;;;;;;;12.35;6.00;;;;;;;17.86;80.32;100237.11;3635046;79;59740;-89
2022/06/20 08:36:57;;;;;;;10.08;5.53;;;;;;;17.60;80.47;100112.81;3362746;84;98791;-90
2022/06/20 08:42:09;;;;;;;9.03;4.00;;;;;;;17.19;81.10;99853.08;3392076;86;98930;-95
2022/06/20 08:47:36;;;;;;;10.03;4.10;;;;;;;16.77;82.42;99885.45;3364790;85;98740;-94
2022/06/20 08:53:35;;;;;;;7.37;4.15;;;;;;;16.81;84.32;99923.69;3335349;83;98857;-91
2022/06/20 08:59:10;;;;;;;6.85;3.75;;;;;;;16.95;84.98;99906.67;3393302;84;98888;-88
2022/06/20 09:04:48;;;;;;;7.10;3.85;;;;;;;16.90;85.64;99834.91;3501737;83;32546;-88
2022/06/20 09:10:34;;;;;;;8.40;3.55;;;;;;;17.04;86.21;99809.56;3482366;80;98704;-88
2022/06/20 09:15:59;;;;;;;5.63;3.30;;;;;;;17.22;86.11;99824.41;3448193;83;98758;-91
2022/06/20 09:21:25;;;;;;;7.50;3.35;;;;;;;17.42;85.79;99806.42;3452781;84;98675;-88
2022/06/20 09:26:52;;;;;;;6.97;3.25;;;;;;;17.51;85.44;99773.20;3445125;84;98820;-91
2022/06/20 09:32:16;;;;;;;4.92;2.75;;;;;;;17.56;85.31;99871.41;3452295;82;98685;-88
2022/06/20 09:37:58;;;;;;;6.97;3.45;;;;;;;17.67;84.74;99875.32;3432572;84;98736;-88
2022/06/20 09:43:17;;;;;;;6.58;3.40;;;;;;;17.73;84.08;99926.45;3452373;84;32712;-94
2022/06/20 09:49:06;;;;;;;5.80;3.00;;;;;;;17.37;84.06;99740.16;3432528;82;99007;-92
2022/06/20 09:54:19;;;;;;;5.65;2.72;;;;;;;17.11;84.92;99707.12;3452958;82;98818;-95
2022/06/20 10:00:02;;;;;;;6.75;3.37;;;;;;;17.10;85.46;99752.80;3441893;82;98490;-92
2022/06/20 10:05:31;;;;;;;5.12;2.98;;;;;;;16.97;86.26;99745.80;3448780;84;98612;-95
2022/06/20 10:11:02;;;;;;;5.17;3.00;;;;;;;16.86;86.69;99754.23;3447577;84;99779;-94
2022/06/20 10:16:41;;;;;;;7.03;3.50;;;;;;;17.10;87.13;99830.66;3442092;84;99340;-95
2022/06/20 10:22:02;;;;;;;7.35;2.98;;;;;;;17.25;86.50;99859.69;3433421;83;98603;-95
2022/06/20 10:27:38;;;;;;;6.75;3.62;;;;;;;17.41;86.24;99847.19;3448129;82;99012;-96
2022/06/20 10:32:56;;;;;;;6.45;3.35;;;;;;;17.51;86.03;99826.66;3466992;83;98646;-96
2022/06/20 10:38:26;;;;;;;9.78;3.65;;;;;;;17.60;85.74;99879.69;3500681;83;98619;-94
2022/06/20 10:43:45;;;;;;;7.83;3.70;;;;;;;17.59;85.18;99859.42;3504049;83;32531;-94
2022/06/20 10:49:01;;;;;;;8.53;4.15;;;;;;;17.55;85.45;99859.34;3496172;81;98001;-94
2022/06/20 10:55:06;;;;;;;8.90;3.63;;;;;;;17.52;85.00;99856.03;3499298;82;99036;-94
2022/06/20 11:00:15;;;;;;;7.67;3.20;;;;;;;17.27;85.96;99720.36;3498205;82;99062;-92
2022/06/20 11:05:50;;;;;;;7.37;4.25;;;;;;;17.04;86.59;99717.81;3500276;82;98510;-89
2022/06/20 11:11:22;;;;;;;7.50;3.72;;;;;;;16.91;87.58;99701.70;3496490;83;98711;-94
2022/06/20 11:16:37;;;;;;;7.42;3.17;;;;;;;16.91;88.35;99755.89;3524432;81;98771;-95
2022/06/20 11:22:23;;;;;;;5.30;3.10;;;;;;;17.14;88.32;99796.59;3518330;82;27319;-96
2022/06/20 11:27:33;;;;;;;7.17;3.13;;;;;;;17.30;88.00;99802.94;3497463;82;98807;-95
2022/06/20 11:32:42;;;;;;;8.38;2.67;;;;;;;17.52;87.70;99825.43;3521721;81;98667;-93
2022/06/20 11:38:29;;;;;;;4.95;2.65;;;;;;;17.67;87.28;99860.81;3468314;82;98943;-93
2022/06/20 11:44:16;;;;;;;4.67;2.77;;;;;;;17.79;86.91;99874.59;3503492;83;28183;-94
2022/06/20 11:49:56;;;;;;;5.05;2.75;;;;;;;17.91;86.38;99870.48;3507810;81;99327;-93
2022/06/20 11:55:11;;;;;;;6.70;3.15;;;;;;;18.01;85.81;99863.84;3505317;82;32549;-94
2022/06/20 12:00:23;;;;;;;7.80;3.33;;;;;;;18.08;85.47;99871.19;3497396;82;98938;-92
2022/06/20 12:05:42;;;;;;;5.80;3.27;;;;;;;18.11;85.43;99872.52;3500835;82;98513;-90
2022/06/20 12:10:56;;;;;;;4.90;2.55;;;;;;;18.14;85.23;99873.01;3491941;82;98723;-92
2022/06/20 12:16:26;;;;;;;6.08;2.85;;;;;;;18.16;84.96;99884.48;3496144;83;98707;-93
2022/06/20 12:26:46;;;;;;;6.75;3.22;;;;;;;18.14;84.75;99887.56;3502131;82;98750;-91
2022/06/20 12:31:58;;;;;;;5.20;2.98;;;;;;;18.14;84.92;99861.10;3515257;82;32265;-91
2022/06/20 12:37:17;;;;;;;6.65;3.47;;;;;;;18.14;84.78;99863.26;3503587;82;98326;-93
2022/06/20 12:42:39;;;;;;;6.78;3.90;;;;;;;18.13;84.67;99885.97;3499969;81;98665;-92
2022/06/20 12:48:00;;;;;;;5.75;3.33;;;;;;;18.10;84.60;99875.09;3495235;81;98909;-92
2022/06/20 12:53:20;;;;;;;6.67;4.05;;;;;;;18.09;84.33;99868.61;3501919;83;98759;-95
2022/06/20 12:58:49;;;;;;;9.23;5.15;;;;;;;18.07;84.22;99883.56;3498356;82;98831;-92
2022/06/20 13:04:20;;;;;;;8.10;4.85;;;;;;;18.01;84.15;99894.47;3496985;81;97899;-92
2022/06/20 13:09:47;;;;;;;9.83;5.40;;;;;;;17.94;84.36;99902.99;3521284;81;98780;-88
2022/06/20 13:15:21;;;;;;;8.78;5.10;;;;;;;17.87;84.23;99905.22;3498209;83;98748;-92
2022/06/20 13:20:38;;;;;;;9.20;4.50;;;;;;;17.75;84.34;99920.62;3426993;80;98735;-88
2022/06/20 13:25:53;;;;;;;7.47;4.65;;;;;;;17.62;84.59;99919.78;3499419;80;98751;-88
2022/06/20 13:31:14;;;;;;;7.90;4.58;;;;;;;17.52;84.63;99912.48;3506687;82;32767;-89
2022/06/20 13:36:42;;;;;;;8.93;4.72;;;;;;;17.45;84.99;99919.59;3498032;82;98859;-91
2022/06/20 13:41:55;;;;;;;6.78;3.60;;;;;;;17.38;85.52;99942.63;3504805;83;98502;-90
2022/06/20 13:47:28;;;;;;;8.40;3.87;;;;;;;17.27;85.65;99924.02;3497486;83;99078;-89
2022/06/20 13:52:35;;;;;;;5.15;3.20;;;;;;;17.11;85.66;99907.31;3509449;83;98762;-88
2022/06/20 13:57:41;;;;;;;6.65;3.62;;;;;;;16.94;85.95;99917.62;3474366;83;98967;-90
2022/06/20 14:02:48;;;;;;;6.87;3.50;;;;;;;16.87;85.99;99928.11;3507736;83;98913;-96
2022/06/20 14:07:53;;;;;;;5.72;2.95;;;;;;;16.75;86.23;99958.75;3500673;83;98347;-89
2022/06/20 14:12:59;;;;;;;4.10;2.50;;;;;;;16.66;86.52;99959.13;3512386;83;28253;-94
2022/06/20 14:18:06;;;;;;;4.25;2.08;;;;;;;16.55;87.20;99966.31;3502866;83;99074;-95
2022/06/20 14:23:21;;;;;;;4.92;2.42;;;;;;;16.44;86.99;99961.58;3488158;82;99110;-91
2022/06/20 14:28:43;;;;;;;3.70;2.10;;;;;;;16.34;87.27;99971.46;3502054;81;98954;-90
2022/06/20 14:33:52;;;;;;;2.77;1.60;;;;;;;16.29;87.84;99961.64;3505820;82;98566;-90
2022/06/20 14:39:13;;;;;;;3.67;2.00;;;;;;;16.27;87.46;99969.63;3505127;80;99148;-89
2022/06/20 14:44:29;;;;;;;3.52;1.98;;;;;;;16.26;87.63;99956.95;3495345;83;99087;-93
2022/06/20 14:49:51;;;;;;;2.90;1.87;;;;;;;16.27;87.73;99966.85;3502912;83;98236;-94
2022/06/20 14:55:27;;;;;;;2.52;1.60;;;;;;;16.27;88.09;99964.66;3502724;83;32275;-94
2022/06/20 15:01:16;;;;;;;4.25;1.70;;;;;;;16.23;88.22;99957.80;3505614;83;98778;-91
2022/06/20 15:06:31;;;;;;;5.15;2.10;;;;;;;16.24;88.43;99953.04;3500705;83;98710;-90
2022/06/20 15:11:49;;;;;;;4.00;2.45;;;;;;;16.33;88.42;99945.70;3509151;83;98578;-96
2022/06/20 15:16:59;;;;;;;3.60;1.60;;;;;;;16.34;88.71;99940.91;3507590;82;98521;-94
2022/06/20 15:22:20;;;;;;;3.45;1.67;;;;;;;16.40;88.53;99950.38;3504153;83;98742;-95
2022/06/20 15:27:30;;;;;;;4.03;1.80;;;;;;;16.45;88.44;99938.77;3514801;82;98319;-94
2022/06/20 15:32:36;;;;;;;5.37;2.27;;;;;;;16.51;88.34;99925.94;3538172;82;98611;-94
2022/06/20 15:37:41;;;;;;;7.25;3.12;;;;;;;16.50;88.42;99915.42;3501469;83;98641;-94
2022/06/20 15:42:54;;;;;;;4.58;2.20;;;;;;;16.50;88.39;99902.13;3507541;83;98499;-93
2022/06/20 15:48:10;;;;;;;4.92;2.12;;;;;;;16.40;88.17;99859.48;3498106;83;98820;-95
2022/06/20 15:54:07;;;;;;;5.07;2.70;;;;;;;16.41;88.38;99820.77;3504541;83;98745;-94
2022/06/20 15:59:13;;;;;;;4.40;2.47;;;;;;;16.47;88.46;99813.48;3499695;83;98590;-95
2022/06/20 16:04:47;;;;;;;5.55;2.77;;;;;;;16.46;87.98;99774.44;3509821;83;98709;-93
2022/06/20 16:10:02;;;;;;;4.42;2.83;;;;;;;16.46;88.31;99783.39;3523452;81;99062;-95
2022/06/20 16:15:14;;;;;;;5.80;3.30;;;;;;;16.52;88.29;99836.59;3510355;83;98706;-94
2022/06/20 16:20:28;;;;;;;6.03;2.92;;;;;;;16.51;87.78;99847.53;3502705;83;98623;-96
2022/06/20 16:25:33;;;;;;;4.95;2.50;;;;;;;16.48;88.01;99840.08;3499244;83;98650;-93
2022/06/20 16:30:38;;;;;;;5.07;2.97;;;;;;;16.47;88.11;99853.00;3503425;83;98603;-92
2022/06/20 16:35:40;;;;;;;6.87;3.10;;;;;;;16.47;87.90;99869.67;3492686;83;98984;-93
2022/06/20 16:41:06;;;;;;;6.05;3.05;;;;;;;16.41;88.02;99872.16;3493443;83;99163;-93
2022/06/20 16:46:24;;;;;;;6.03;2.75;;;;;;;16.39;88.30;99893.23;3483018;82;98730;-91
2022/06/20 16:52:00;;;;;;;6.35;3.85;;;;;;;16.35;88.36;99889.12;3522071;80;97974;-88
2022/06/20 16:57:33;;;;;;;4.62;2.80;;;;;;;16.31;88.31;99902.31;3466676;82;99000;-88
2022/06/20 17:03:30;;;;;;;5.30;3.05;;;;;;;16.17;88.81;99889.30;3481872;82;98678;-86
2022/06/20 17:08:48;;;;;;;5.37;3.13;;;;;;;16.17;88.99;99915.67;3488296;82;98740;-87
2022/06/20 17:14:09;;;;;;;4.90;3.12;;;;;;;16.16;89.03;99917.69;3486324;83;33030;-88
2022/06/20 17:19:19;;;;;;;7.83;3.70;;;;;;;16.11;89.35;99921.55;3484489;82;98910;-89
2022/06/20 17:24:59;;;;;;;5.85;3.37;;;;;;;16.12;89.48;99915.58;3480534;81;99045;-87
2022/06/20 17:30:11;;;;;;;7.92;3.55;;;;;;;16.06;89.37;99909.55;3475142;82;98704;-90
2022/06/20 17:35:50;;;;;;;10.95;4.25;;;;;;;16.05;89.65;99914.92;3481236;82;98777;-86
2022/06/20 17:41:08;;;;;;;6.80;3.47;;;;;;;15.82;89.35;99921.31;3498488;82;98855;-88
2022/06/20 17:46:30;;;;;;;6.62;4.03;;;;;;;15.73;90.00;99925.83;3480505;82;99063;-88
2022/06/20 17:52:07;;;;;;;6.40;3.80;;;;;;;15.69;90.28;99911.26;3475367;83;99065;-87
2022/06/20 17:57:38;;;;;;;7.28;3.95;;;;;;;15.70;90.43;99907.27;3479495;82;98826;-87
2022/06/20 18:03:11;;;;;;;7.05;3.85;;;;;;;15.54;90.66;99900.22;3483778;81;99124;-87
2022/06/20 18:08:26;;;;;;;6.67;4.12;;;;;;;15.46;91.26;99905.10;3481827;83;98712;-87
2022/06/20 18:13:54;;;;;;;9.05;4.20;;;;;;;15.40;91.59;99913.72;3486682;83;32484;-87
2022/06/20 18:19:08;;;;;;;7.40;3.90;;;;;;;15.36;91.93;99906.68;3481066;81;98569;-88
2022/06/20 18:24:36;;;;;;;11.17;3.83;;;;;;;15.27;92.28;99914.09;3493226;82;98557;-86
2022/06/20 18:29:41;;;;;;;9.95;4.20;;;;;;;15.18;93.21;99929.69;3471972;82;98720;-87
2022/06/20 18:34:48;;;;;;;8.75;4.37;;;;;;;15.16;93.85;99927.34;3474767;82;98713;-86
2022/06/20 18:40:10;;;;;;;9.48;4.22;;;;;;;15.08;93.78;99940.33;3480812;83;99145;-85
2022/06/20 18:45:11;;;;;;;8.85;4.92;;;;;;;15.01;94.06;99941.24;3482979;83;98748;-87
2022/06/20 18:50:46;;;;;;;12.03;5.30;;;;;;;14.99;94.29;99934.55;3485749;82;98744;-86
2022/06/20 18:56:12;;;;;;;9.53;5.28;;;;;;;14.87;94.48;99949.75;3479093;81;98554;-88
2022/06/20 19:02:04;;;;;;;9.88;5.28;;;;;;;14.75;95.10;99941.20;3524578;81;27620;-93
2022/06/20 19:08:11;;;;;;;9.58;5.35;;;;;;;14.68;95.40;99934.39;3511457;80;98767;-91
2022/06/20 19:13:20;;;;;;;9.40;4.37;;;;;;;14.61;95.63;99935.25;3483482;83;30909;-91
2022/06/20 19:18:52;;;;;;;9.43;5.87;;;;;;;14.57;95.80;99930.97;3400193;83;99018;-92
2022/06/20 19:24:31;;;;;;;11.38;5.50;;;;;;;14.83;96.56;99920.53;3501348;82;98844;-90
2022/06/20 19:30:04;;;;;;;10.08;4.42;;;;;;;14.78;96.22;99920.38;3423445;82;98738;-89
2022/06/20 19:35:10;;;;;;;9.95;5.28;;;;;;;14.77;96.12;99922.97;3496980;81;98929;-93
2022/06/20 19:40:23;;;;;;;11.40;5.87;;;;;;;14.82;96.23;99932.20;3490148;81;98726;-92
2022/06/20 19:45:35;;;;;;;11.00;5.15;;;;;;;14.75;95.11;99939.82;3466700;82;98830;-89
2022/06/20 19:50:41;;;;;;;11.80;5.37;;;;;;;14.60;95.52;99932.92;3476395;82;98917;-87
2022/06/20 19:55:59;;;;;;;15.30;6.53;;;;;;;14.57;95.70;99935.13;3459775;82;98823;-90
2022/06/20 20:01:27;;;;;;;9.58;5.58;;;;;;;14.53;96.11;99929.64;3494211;82;98614;-87
2022/06/20 20:07:08;;;;;;;11.23;6.83;;;;;;;14.45;96.33;99924.61;3455132;82;98917;-87
2022/06/20 20:12:15;;;;;;;12.88;7.50;;;;;;;14.46;96.57;99926.97;3421015;83;98688;-88
2022/06/20 20:17:13;;;;;;;12.00;6.53;;;;;;;14.41;96.69;99939.87;3460250;81;99308;-89
2022/06/20 20:22:30;;;;;;;13.73;7.20;;;;;;;14.31;97.02;99944.14;3429620;82;98854;-86
2022/06/20 20:28:12;;;;;;;;;;;;;;;14.20;97.38;99942.09;3435370;83;99182;-87
2022/06/20 20:34:25;;;;;;;12.28;6.97;;;;;;;14.15;98.95;99941.13;3409694;84;32474;-87
2022/06/20 20:39:37;;;;;;;15.83;7.60;;;;;;;14.27;98.28;99958.03;3514871;81;98456;-90
2022/06/20 20:44:49;;;;;;;12.10;6.65;;;;;;;14.22;98.64;99950.17;3521654;81;99288;-83
2022/06/20 20:50:22;;;;;;;13.55;6.28;;;;;;;14.06;98.82;99953.31;3510722;81;98481;-90
2022/06/20 20:55:29;;;;;;;7.72;4.47;;;;;;;13.93;98.60;99947.50;3524728;82;98407;-88
2022/06/20 21:00:33;;;;;;;14.90;5.40;;;;;;;13.84;98.59;99948.57;3537930;81;98813;-88
2022/06/20 21:05:57;;;;;;;9.58;4.10;;;;;;;13.86;98.32;99944.02;3521020;80;98846;-90
2022/06/20 21:11:02;;;;;;;8.35;3.40;;;;;;;13.86;97.46;99946.78;3531176;81;98731;-89
2022/06/20 21:16:17;;;;;;;9.60;4.00;;;;;;;13.76;97.46;99940.75;3521685;81;98823;-91
2022/06/20 21:21:26;;;;;;;6.50;3.22;;;;;;;13.64;95.62;99938.50;3534512;81;98746;-89
2022/06/20 21:26:32;;;;;;;8.83;3.47;;;;;;;13.51;95.42;99951.27;3511727;81;98605;-94
2022/06/20 21:31:44;;;;;;;7.10;3.62;;;;;;;13.46;95.66;99966.91;3532291;81;29215;-95
2022/06/20 21:36:47;;;;;;;6.05;2.75;;;;;;;13.35;95.51;99964.83;3508085;81;98554;-91
2022/06/20 21:42:00;;;;;;;7.00;2.65;;;;;;;13.33;96.57;99956.93;3473054;81;99377;-95
2022/06/20 21:47:02;;;;;;;6.30;3.00;;;;;;;13.35;95.63;99961.45;3462448;82;98670;-92
2022/06/20 21:52:10;;;;;;;4.97;2.52;;;;;;;13.23;95.51;99959.17;3473806;80;98675;-92
2022/06/20 21:57:19;;;;;;;5.20;2.42;;;;;;;13.39;97.57;99953.92;3476966;82;98289;-93
2022/06/20 22:07:45;;;;;;;7.28;2.60;;;;;;;13.44;95.81;99951.30;3483873;82;98200;-91
2022/06/20 22:12:52;;;;;;;7.30;3.80;;;;;;;13.36;95.51;99928.47;3468164;82;98503;-92
2022/06/20 22:18:09;;;;;;;7.25;2.98;;;;;;;13.40;95.79;99909.11;3462887;81;99242;-92
2022/06/20 22:23:30;;;;;;;5.28;2.55;;;;;;;13.39;96.88;99929.05;3477018;83;99032;-89
2022/06/20 22:28:36;;;;;;;8.68;3.00;;;;;;;13.53;96.53;99928.14;3454567;83;98780;-91
2022/06/20 22:33:40;;;;;;;5.03;2.72;;;;;;;13.48;95.81;99923.05;3473433;82;98689;-92
2022/06/20 22:38:52;;;;;;;6.45;2.83;;;;;;;13.52;96.71;99919.05;3465504;82;100200;-90
2022/06/20 22:43:57;;;;;;;8.68;2.85;;;;;;;13.49;95.85;99925.41;3468928;83;32509;-87
2022/06/20 22:49:02;;;;;;;8.23;2.45;;;;;;;13.48;96.66;99927.98;3461801;81;98534;-91
2022/06/20 22:54:14;;;;;;;12.15;3.40;;;;;;;13.43;96.14;99918.75;3466369;82;98454;-89
2022/06/20 22:59:19;;;;;;;6.45;3.25;;;;;;;13.44;95.31;99927.81;3466540;82;98829;-89
2022/06/20 23:04:47;;;;;;;7.42;3.10;;;;;;;13.25;94.93;99920.85;3464359;81;98637;-92
2022/06/20 23:09:48;;;;;;;8.48;3.00;;;;;;;13.19;95.15;99925.86;3460035;79;98985;-90
2022/06/20 23:14:52;;;;;;;11.40;4.00;;;;;;;13.18;96.49;99920.92;3468720;82;99033;-90
2022/06/20 23:19:53;;;;;;;10.08;3.85;;;;;;;13.14;95.55;99913.24;3459184;82;98899;-89
2022/06/20 23:24:57;;;;;;;9.07;3.80;;;;;;;13.07;96.42;99896.73;3442941;83;98867;-86
2022/06/20 23:29:58;;;;;;;8.65;3.80;;;;;;;12.94;96.17;99889.30;3470261;80;98669;-88
2022/06/20 23:35:04;;;;;;;8.73;4.20;;;;;;;12.81;96.12;99891.75;3466868;82;98619;-88
2022/06/20 23:40:07;;;;;;;6.80;3.62;;;;;;;12.76;96.71;99894.16;3456573;82;98635;-87
2022/06/20 23:45:10;;;;;;;7.70;3.20;;;;;;;12.57;95.86;99902.36;3464184;80;99055;-90
2022/06/20 23:50:19;;;;;;;4.90;2.92;;;;;;;12.35;96.34;99898.71;3460953;82;98171;-85
2022/06/20 23:55:21;;;;;;;6.58;3.30;;;;;;;12.19;96.66;99897.80;3463453;83;98341;-90
